Time;durP1;ratioP1;P1;durP2;ratioP2;P2;SDS_P1;SDS_P2;PMS_P1;PMS_P2;Temp;Humidity;BMP_temperature;BMP_pressure;BME280_temperature;BME280_humidity;BME280_pressure;Samples;Min_cycle;Max_cycle;Signal;HPM_P1;HPM_P2
2022/08/08 00:00:01;;;;;;;5.80;3.08;;;;;;;23.07;43.49;102403.66;5034147;28;20029;-72
2022/08/08 00:02:45;;;;;;;5.25;3.03;;;;;;;23.05;43.33;102401.13;5034675;28;20033;-72
2022/08/08 00:05:39;;;;;;;5.00;2.67;;;;;;;23.05;43.20;102406.44;5034076;28;20469;-72
2022/08/08 00:08:26;;;;;;;5.50;3.17;;;;;;;23.04;43.46;102396.75;5025816;28;20038;-72
2022/08/08 00:11:25;;;;;;;5.60;2.78;;;;;;;23.04;43.19;102398.59;5034534;28;20101;-72
2022/08/08 00:14:03;;;;;;;4.93;2.95;;;;;;;23.03;43.47;102399.53;5033632;28;20481;-72
2022/08/08 00:16:43;;;;;;;5.25;2.90;;;;;;;23.00;43.55;102401.47;5034452;28;20109;-72
2022/08/08 00:19:30;;;;;;;5.55;3.00;;;;;;;22.98;43.58;102394.56;5034146;28;20021;-72
2022/08/08 00:22:05;;;;;;;5.22;3.00;;;;;;;22.96;43.44;102401.84;5033556;28;20071;-72
2022/08/08 00:24:46;;;;;;;5.25;3.20;;;;;;;22.97;43.72;102406.16;5034094;28;20485;-72
2022/08/08 00:27:14;;;;;;;5.75;2.88;;;;;;;22.95;43.44;102413.41;5033306;28;20021;-72
2022/08/08 00:29:45;;;;;;;5.40;3.17;;;;;;;22.94;43.66;102409.06;5034062;28;20025;-71
2022/08/08 00:32:16;;;;;;;5.40;2.95;;;;;;;22.93;43.51;102408.22;5033516;28;20029;-71
2022/08/08 00:35:19;;;;;;;6.53;3.20;;;;;;;22.92;43.53;102408.34;5033075;28;20444;-71
2022/08/08 00:38:01;;;;;;;5.13;2.92;;;;;;;22.90;43.72;102415.59;5033965;28;20033;-71
2022/08/08 00:40:28;;;;;;;5.38;3.60;;;;;;;22.90;43.71;102407.63;5033680;28;20505;-71
2022/08/08 00:43:32;;;;;;;7.28;3.65;;;;;;;22.90;43.67;102412.94;5033023;28;20036;-71
2022/08/08 00:46:33;;;;;;;4.57;3.13;;;;;;;22.87;43.87;102408.69;5033944;28;20032;-71
2022/08/08 00:49:42;;;;;;;4.57;3.28;;;;;;;22.89;43.63;102411.22;5032703;28;20389;-71
2022/08/08 00:52:30;;;;;;;5.80;3.33;;;;;;;22.86;43.56;102400.84;5032274;28;20421;-71
2022/08/08 00:55:04;;;;;;;8.13;3.33;;;;;;;22.84;43.81;102400.94;5033656;28;20037;-71
2022/08/08 00:58:07;;;;;;;6.28;3.33;;;;;;;22.82;43.36;102393.09;5033518;28;20036;-71
2022/08/08 01:00:50;;;;;;;5.07;2.95;;;;;;;22.82;43.75;102395.75;5033477;28;20017;-71
2022/08/08 01:04:03;;;;;;;4.65;2.92;;;;;;;22.82;43.63;102394.91;5032422;28;20383;-71
2022/08/08 01:06:46;;;;;;;5.93;3.67;;;;;;;22.79;43.87;102393.31;5033582;28;20029;-71
2022/08/08 01:09:53;;;;;;;4.80;3.15;;;;;;;22.80;43.66;102394.19;5031617;28;20034;-71
2022/08/08 01:12:48;;;;;;;6.28;3.60;;;;;;;22.79;43.91;102392.50;5033049;28;20110;-71
2022/08/08 01:15:53;;;;;;;6.05;3.35;;;;;;;22.77;43.92;102395.28;5033226;28;20111;-71
2022/08/08 01:18:27;;;;;;;5.15;3.30;;;;;;;22.77;43.76;102395.28;5032055;28;20485;-71
2022/08/08 01:21:11;;;;;;;;;;;;;;;22.76;43.70;102390.06;5033466;28;20079;-71
2022/08/08 01:24:05;;;;;;;4.95;3.35;;;;;;;22.77;43.91;102391.78;5032451;28;19917;-72
2022/08/08 01:27:11;;;;;;;7.95;3.85;;;;;;;22.74;43.88;102390.19;5033187;28;20084;-72
2022/08/08 01:29:55;;;;;;;6.20;3.58;;;;;;;22.75;44.05;102394.56;5033073;28;20033;-72
2022/08/08 01:33:03;;;;;;;5.82;3.83;;;;;;;22.74;43.72;102386.69;5032032;28;20021;-71
2022/08/08 01:35:54;;;;;;;5.72;3.78;;;;;;;22.74;43.97;102384.03;5032734;28;20029;-72
2022/08/08 01:38:41;;;;;;;5.82;3.58;;;;;;;22.74;44.15;102381.38;5031727;28;20473;-71
2022/08/08 01:41:28;;;;;;;6.15;3.50;;;;;;;22.72;44.09;102386.81;5032355;28;20087;-71
2022/08/08 01:44:19;;;;;;;6.65;3.70;;;;;;;22.71;43.86;102382.44;5032818;28;20029;-72
2022/08/08 01:46:57;;;;;;;5.20;3.60;;;;;;;22.71;44.17;102382.44;5033008;28;20033;-71
2022/08/08 01:49:31;;;;;;;7.03;3.75;;;;;;;22.70;43.96;102386.09;5032454;28;20025;-71
2022/08/08 01:52:07;;;;;;;5.95;3.58;;;;;;;22.70;44.12;102378.13;5031859;28;20025;-71
2022/08/08 01:55:03;;;;;;;5.28;3.40;;;;;;;22.70;44.03;102382.56;5032555;28;20385;-71
2022/08/08 01:57:46;;;;;;;7.18;3.70;;;;;;;22.69;43.87;102392.34;5032717;28;20099;-71
2022/08/08 02:00:15;;;;;;;6.18;4.25;;;;;;;22.67;44.13;102393.44;5031534;28;20116;-71
2022/08/08 02:03:05;;;;;;;5.03;3.70;;;;;;;22.65;44.21;102393.53;5032716;28;20045;-71
2022/08/08 02:05:44;;;;;;;5.90;4.15;;;;;;;22.63;44.09;102388.34;5031651;28;20036;-71
2022/08/08 02:08:41;;;;;;;6.28;3.83;;;;;;;22.64;44.04;102390.06;5032282;28;20091;-71
2022/08/08 02:11:30;;;;;;;6.78;4.30;;;;;;;22.63;44.15;102398.97;5032388;28;20040;-72
2022/08/08 02:14:04;;;;;;;5.13;3.55;;;;;;;22.61;44.27;102392.94;5031874;28;20029;-71
2022/08/08 02:16:41;;;;;;;6.40;3.88;;;;;;;22.61;44.36;102392.09;5032773;28;20052;-71
2022/08/08 02:19:25;;;;;;;5.78;3.40;;;;;;;22.60;44.36;102390.41;5032025;28;20036;-71
2022/08/08 02:22:30;;;;;;;5.50;4.00;;;;;;;22.59;44.25;102386.06;5035487;28;20092;-71
2022/08/08 02:25:02;;;;;;;5.63;3.78;;;;;;;22.58;44.39;102395.81;5036401;28;20034;-71
2022/08/08 02:27:38;;;;;;;5.68;4.20;;;;;;;22.56;44.06;102392.44;5035439;28;20080;-71
2022/08/08 02:30:11;;;;;;;6.15;4.20;;;;;;;22.56;44.12;102394.28;5035955;28;20469;-71
2022/08/08 02:33:12;;;;;;;7.53;4.20;;;;;;;22.56;44.29;102391.63;5036585;28;20045;-72
2022/08/08 02:36:25;;;;;;;7.20;4.20;;;;;;;22.52;44.51;102387.50;5035424;28;20037;-72
2022/08/08 02:39:09;;;;;;;5.40;4.10;;;;;;;22.53;44.08;102395.34;5036011;28;20453;-71
2022/08/08 02:41:51;;;;;;;6.13;4.05;;;;;;;22.52;44.03;102392.81;5035122;28;20045;-71
2022/08/08 02:44:53;;;;;;;5.97;3.75;;;;;;;22.52;44.41;102387.50;5035735;28;20112;-71
2022/08/08 02:47:40;;;;;;;5.07;3.58;;;;;;;22.51;44.28;102385.78;5035701;28;20037;-71
2022/08/08 02:50:48;;;;;;;7.05;4.00;;;;;;;22.51;44.28;102388.44;5035791;28;20033;-72
2022/08/08 02:53:56;;;;;;;5.55;3.85;;;;;;;22.49;44.28;102393.03;5035654;28;20037;-71
2022/08/08 02:56:40;;;;;;;5.45;3.70;;;;;;;22.48;44.58;102378.03;4993074;28;20031;-71
2022/08/08 02:59:42;;;;;;;6.20;3.75;;;;;;;22.47;44.58;102387.84;4993950;28;20033;-71
2022/08/08 03:02:27;;;;;;;5.85;4.00;;;;;;;22.45;44.16;102389.78;5028650;28;20365;-72
2022/08/08 03:05:20;;;;;;;6.13;3.90;;;;;;;22.44;44.36;102388.91;5035657;28;20532;-71
2022/08/08 03:08:04;;;;;;;5.60;4.45;;;;;;;22.43;44.29;102396.97;5035745;28;20079;-71
2022/08/08 03:10:29;;;;;;;6.50;3.97;;;;;;;22.42;44.41;102395.31;5034615;28;20084;-71
2022/08/08 03:13:19;;;;;;;7.27;4.03;;;;;;;22.41;44.46;102397.13;5035594;28;20072;-71
2022/08/08 03:16:38;;;;;;;7.55;3.97;;;;;;;22.41;44.40;102393.59;5034943;28;20033;-72
2022/08/08 03:19:34;;;;;;;7.85;4.25;;;;;;;22.40;44.45;102395.44;4993452;28;20506;-71
2022/08/08 03:21:59;;;;;;;5.68;3.70;;;;;;;22.40;44.26;102397.25;5034894;28;20039;-71
2022/08/08 03:24:25;;;;;;;6.60;4.00;;;;;;;22.37;44.55;102386.84;5034466;28;20120;-71
2022/08/08 03:27:03;;;;;;;5.80;4.05;;;;;;;22.39;44.26;102398.19;5035365;28;20029;-71
2022/08/08 03:29:37;;;;;;;5.90;4.20;;;;;;;22.39;44.32;102398.19;5035134;28;20485;-71
2022/08/08 03:34:47;;;;;;;5.97;3.95;;;;;;;22.38;44.21;102410.63;5035432;28;20503;-71
2022/08/08 03:37:16;;;;;;;6.22;3.85;;;;;;;22.37;44.59;102408.09;5033985;28;20100;-72
2022/08/08 03:39:43;;;;;;;6.05;3.95;;;;;;;22.36;44.35;102401.91;5034951;28;20061;-71
2022/08/08 03:42:14;;;;;;;6.13;3.97;;;;;;;22.34;44.34;102403.84;5034711;28;20025;-72
2022/08/08 03:44:39;;;;;;;6.32;4.10;;;;;;;22.35;44.56;102404.69;5034169;28;20037;-71
2022/08/08 03:47:05;;;;;;;6.38;4.07;;;;;;;22.34;44.50;102403.00;5034704;28;20028;-72
2022/08/08 03:49:30;;;;;;;6.55;3.78;;;;;;;22.33;44.84;102409.28;5034751;28;20022;-71
2022/08/08 03:51:58;;;;;;;7.38;4.40;;;;;;;22.32;44.70;102416.41;5034139;28;20033;-72
2022/08/08 03:54:24;;;;;;;6.47;4.25;;;;;;;22.32;44.63;102418.19;5034840;28;20025;-72
2022/08/08 03:56:50;;;;;;;5.18;3.70;;;;;;;22.28;44.44;102410.41;5034681;28;20105;-71
2022/08/08 03:59:15;;;;;;;5.15;3.83;;;;;;;22.28;44.65;102406.94;5033535;28;20392;-72
2022/08/08 04:01:44;;;;;;;5.78;3.83;;;;;;;22.31;44.63;102416.53;5034477;28;20186;-71
2022/08/08 04:04:10;;;;;;;6.38;4.13;;;;;;;22.28;44.49;102420.22;5034357;28;20389;-71
2022/08/08 04:06:37;;;;;;;5.53;4.07;;;;;;;22.28;44.40;102421.03;5033927;28;20026;-71
2022/08/08 04:09:05;;;;;;;6.57;4.40;;;;;;;22.28;44.55;102423.69;5034151;28;20025;-71
2022/08/08 04:11:31;;;;;;;6.47;4.07;;;;;;;22.26;44.54;102420.31;5034125;28;20116;-71
2022/08/08 04:13:57;;;;;;;6.90;3.95;;;;;;;22.24;44.62;102426.72;5033652;28;20104;-71
2022/08/08 04:16:23;;;;;;;6.70;4.45;;;;;;;22.23;44.48;102425.84;5034079;28;20052;-71
2022/08/08 04:18:48;;;;;;;6.30;4.03;;;;;;;22.24;44.74;102432.03;5034273;28;20049;-71
2022/08/08 04:21:16;;;;;;;5.78;3.63;;;;;;;22.23;44.83;102428.50;5033260;28;20028;-71
2022/08/08 04:23:42;;;;;;;6.85;4.55;;;;;;;22.24;44.74;102426.72;5034072;28;20469;-70
2022/08/08 04:26:08;;;;;;;6.43;4.20;;;;;;;22.23;44.78;102420.53;5032965;28;20036;-71
2022/08/08 04:28:36;;;;;;;6.28;4.00;;;;;;;22.22;44.56;102426.84;5034226;28;20075;-71
2022/08/08 04:31:02;;;;;;;6.55;4.18;;;;;;;22.23;45.02;102430.34;5033868;28;20021;-72
2022/08/08 04:33:27;;;;;;;5.90;4.30;;;;;;;22.23;44.71;102427.69;5033600;28;20072;-71
2022/08/08 04:35:53;;;;;;;5.97;4.13;;;;;;;22.19;44.51;102429.72;5034049;28;20505;-71
2022/08/08 04:38:18;;;;;;;6.75;4.03;;;;;;;22.21;44.66;102437.56;5033548;28;20037;-71
2022/08/08 04:40:44;;;;;;;5.18;3.60;;;;;;;22.20;44.75;102435.88;5032855;28;20034;-71
2022/08/08 04:43:09;;;;;;;5.25;3.75;;;;;;;22.20;44.62;102435.88;5033430;28;20037;-71
2022/08/08 04:45:34;;;;;;;6.20;4.07;;;;;;;22.20;44.86;102444.66;5033799;28;20108;-71
2022/08/08 04:48:00;;;;;;;6.07;3.78;;;;;;;22.22;44.79;102449.88;5032670;28;20037;-71
2022/08/08 04:50:25;;;;;;;6.35;4.00;;;;;;;22.21;44.86;102450.84;5033698;28;20021;-71
2022/08/08 04:52:54;;;;;;;6.28;3.83;;;;;;;22.22;45.03;102455.19;5033605;28;20033;-71
2022/08/08 04:55:20;;;;;;;6.65;4.40;;;;;;;22.21;45.20;102456.16;5032572;28;20032;-71
2022/08/08 04:57:45;;;;;;;5.63;3.60;;;;;;;22.21;44.92;102456.16;5033684;28;20018;-71
2022/08/08 05:00:14;;;;;;;6.57;4.20;;;;;;;22.21;44.94;102459.66;5033373;28;20068;-71
2022/08/08 05:02:39;;;;;;;6.53;4.28;;;;;;;22.21;45.03;102464.97;5032486;28;20116;-71
2022/08/08 05:05:05;;;;;;;6.22;4.30;;;;;;;22.22;44.98;102469.31;5033116;28;20053;-71
2022/08/08 05:07:30;;;;;;;6.72;3.72;;;;;;;22.21;45.12;102466.78;5033451;28;20028;-71
2022/08/08 05:09:56;;;;;;;7.57;4.13;;;;;;;22.22;44.81;102460.50;5032445;28;20393;-71
2022/08/08 05:12:21;;;;;;;6.00;3.97;;;;;;;22.23;44.96;102464.84;5033104;28;20107;-71
2022/08/08 05:14:50;;;;;;;6.90;3.95;;;;;;;22.21;45.14;102461.47;5033150;28;20091;-71
2022/08/08 05:17:15;;;;;;;5.93;3.92;;;;;;;22.22;45.16;102469.31;5032275;28;20025;-71
2022/08/08 05:19:41;;;;;;;6.57;3.73;;;;;;;22.23;45.07;102475.47;5033194;28;20029;-71
2022/08/08 05:22:08;;;;;;;5.68;3.78;;;;;;;22.23;45.33;102471.00;5032740;28;20291;-71
2022/08/08 05:24:35;;;;;;;6.40;4.28;;;;;;;22.23;45.24;102478.97;5032420;28;20040;-71
2022/08/08 05:27:00;;;;;;;5.95;4.05;;;;;;;22.24;45.22;102470.06;5032874;28;20592;-71
2022/08/08 05:29:26;;;;;;;7.45;4.72;;;;;;;22.26;45.45;102469.94;5032187;28;20112;-71
2022/08/08 05:31:52;;;;;;;6.93;3.83;;;;;;;22.26;45.21;102469.94;5032803;28;20484;-71
2022/08/08 05:34:25;;;;;;;6.72;3.85;;;;;;;22.27;45.40;102477.78;5032618;28;20022;-71
2022/08/08 05:36:52;;;;;;;6.43;3.95;;;;;;;22.27;45.47;102469.81;5032067;28;20473;-71
2022/08/08 05:39:20;;;;;;;5.53;3.88;;;;;;;22.31;45.49;102466.97;5032550;28;20113;-70
2022/08/08 05:41:48;;;;;;;6.60;4.07;;;;;;;22.32;45.56;102474.84;5032617;28;20367;-71
2022/08/08 05:44:20;;;;;;;6.88;4.18;;;;;;;22.33;45.44;102476.50;5031835;28;20398;-71
2022/08/08 05:46:46;;;;;;;7.53;3.70;;;;;;;22.34;45.83;102475.56;5032864;28;20115;-68
2022/08/08 05:49:13;;;;;;;8.32;5.78;;;;;;;22.33;46.24;102475.66;5032442;28;20040;-73
2022/08/08 05:51:40;;;;;;;5.57;3.67;;;;;;;22.27;46.06;102467.16;5031894;28;20021;-73
2022/08/08 05:54:06;;;;;;;5.85;3.40;;;;;;;22.30;45.93;102479.38;5032538;28;20021;-73
2022/08/08 05:56:37;;;;;;;8.05;3.50;;;;;;;22.32;45.41;102477.50;5032325;28;20052;-72
2022/08/08 05:59:05;;;;;;;5.82;3.15;;;;;;;22.40;45.90;102479.59;5031695;28;20033;-74
2022/08/08 06:01:31;;;;;;;4.95;3.15;;;;;;;22.46;45.83;102479.97;5032452;28;20025;-70
2022/08/08 06:04:01;;;;;;;5.88;3.00;;;;;;;22.52;45.49;102486.63;5032425;28;20026;-70
2022/08/08 06:06:30;;;;;;;4.43;3.10;;;;;;;22.54;45.77;102482.06;5032217;28;20092;-72
2022/08/08 06:09:02;;;;;;;5.07;2.67;;;;;;;22.58;45.46;102488.00;5032490;28;20057;-73
2022/08/08 06:11:32;;;;;;;5.95;2.92;;;;;;;22.61;45.50;102485.94;5032673;28;20105;-74
2022/08/08 06:13:59;;;;;;;5.82;3.17;;;;;;;22.64;45.69;102488.38;5031917;28;20079;-72
2022/08/08 06:16:26;;;;;;;7.00;2.70;;;;;;;22.66;45.68;102492.72;5032252;28;20071;-76
2022/08/08 06:18:54;;;;;;;6.53;3.03;;;;;;;22.69;45.80;102496.00;5031869;28;20022;-76
2022/08/08 06:21:20;;;;;;;6.03;2.83;;;;;;;22.72;45.63;102489.63;5031947;28;20389;-75
2022/08/08 06:23:47;;;;;;;6.25;2.63;;;;;;;22.72;45.74;102489.63;5032352;28;20049;-76
2022/08/08 06:26:13;;;;;;;4.78;2.70;;;;;;;22.78;45.91;102500.63;5031556;28;20036;-71
2022/08/08 06:28:50;;;;;;;4.57;2.78;;;;;;;22.79;45.50;102501.47;5032080;28;20032;-74
2022/08/08 06:31:20;;;;;;;5.25;2.72;;;;;;;22.82;45.54;102507.38;5031935;28;20025;-73
2022/08/08 06:34:05;;;;;;;5.88;3.15;;;;;;;22.87;45.67;102511.53;5031358;28;20026;-72
2022/08/08 06:36:37;;;;;;;7.70;2.80;;;;;;;22.85;45.66;102505.47;5032375;28;20029;-72
2022/08/08 06:39:04;;;;;;;7.32;2.90;;;;;;;22.92;45.77;102510.22;5031843;28;20110;-72
2022/08/08 06:41:39;;;;;;;5.63;2.58;;;;;;;22.94;45.66;102518.06;5031076;28;20106;-74
2022/08/08 06:44:09;;;;;;;6.93;3.00;;;;;;;22.96;45.53;102513.50;5031982;28;20068;-73
2022/08/08 06:46:35;;;;;;;4.35;2.47;;;;;;;22.99;45.82;102515.91;5032278;28;20029;-72
2022/08/08 06:49:00;;;;;;;5.13;2.70;;;;;;;22.99;45.61;102511.44;5031075;28;20601;-70
2022/08/08 06:51:27;;;;;;;5.25;2.90;;;;;;;23.02;45.69;102523.66;5031773;28;20026;-72
2022/08/08 06:53:54;;;;;;;4.40;2.70;;;;;;;23.05;45.24;102518.09;5031275;28;20026;-71
2022/08/08 06:56:24;;;;;;;5.50;2.70;;;;;;;23.06;45.61;102519.78;5031808;28;20030;-69
2022/08/08 06:58:49;;;;;;;5.10;2.70;;;;;;;23.10;45.37;102523.94;5032415;28;20030;-72
2022/08/08 07:01:16;;;;;;;5.93;2.78;;;;;;;23.10;46.44;102521.28;5030906;28;20048;-71
2022/08/08 07:03:59;;;;;;;9.07;3.80;;;;;;;23.11;47.06;102522.97;5032114;28;20029;-71
2022/08/08 07:06:28;;;;;;;6.35;3.35;;;;;;;23.14;48.42;102520.06;5032037;28;20468;-71
2022/08/08 07:09:11;;;;;;;7.13;2.97;;;;;;;23.15;48.57;102532.41;5034925;28;20021;-72
2022/08/08 07:11:40;;;;;;;7.65;3.40;;;;;;;23.12;49.13;102529.16;5035770;28;20076;-73
2022/08/08 07:14:06;;;;;;;7.03;3.00;;;;;;;23.13;49.13;102526.38;5035184;28;20025;-73
2022/08/08 07:17:02;;;;;;;5.63;2.90;;;;;;;23.16;48.82;102527.94;5034708;28;20029;-73
2022/08/08 07:19:40;;;;;;;7.70;3.45;;;;;;;23.20;48.67;102528.56;5035414;28;20469;-74
2022/08/08 07:22:07;;;;;;;6.13;3.38;;;;;;;23.25;48.74;102534.38;5034472;28;20064;-73
2022/08/08 07:24:35;;;;;;;8.80;3.20;;;;;;;23.30;48.67;102537.53;5035382;28;20021;-73
2022/08/08 07:27:03;;;;;;;7.47;3.22;;;;;;;23.35;48.11;102535.34;5035102;28;20074;-69
2022/08/08 07:29:28;;;;;;;5.82;2.70;;;;;;;23.41;47.69;102532.22;5034566;28;20069;-71
2022/08/08 07:31:54;;;;;;;5.25;2.70;;;;;;;23.47;47.77;102538.88;5035343;28;20060;-71
2022/08/08 07:34:20;;;;;;;6.72;2.75;;;;;;;23.51;47.39;102535.88;5035039;28;20465;-70
2022/08/08 07:36:48;;;;;;;6.60;2.67;;;;;;;23.59;47.05;102537.94;5034516;28;20021;-70
2022/08/08 07:39:16;;;;;;;6.30;2.80;;;;;;;23.66;46.81;102538.28;5034909;28;20087;-70
2022/08/08 07:41:44;;;;;;;6.22;2.70;;;;;;;23.71;46.92;102536.94;5034824;28;20037;-71
2022/08/08 07:44:10;;;;;;;5.20;2.60;;;;;;;23.75;46.91;102542.91;5033894;28;20021;-71
2022/08/08 07:46:36;;;;;;;7.13;2.60;;;;;;;23.80;46.20;102539.84;5035189;28;20061;-73
2022/08/08 07:49:01;;;;;;;7.45;2.45;;;;;;;23.82;45.87;102543.25;5034722;28;20056;-74
2022/08/08 07:51:31;;;;;;;5.55;2.42;;;;;;;23.83;45.89;102542.25;5034214;28;20066;-74
2022/08/08 07:54:18;;;;;;;5.50;2.30;;;;;;;23.81;46.42;102538.88;5034942;28;20053;-73
2022/08/08 07:57:11;;;;;;;7.03;2.53;;;;;;;23.79;45.90;102540.84;5034574;28;20431;-72
2022/08/08 07:59:46;;;;;;;6.35;2.13;;;;;;;23.79;45.76;102548.81;5034842;28;20032;-78
2022/08/08 08:02:19;;;;;;;4.80;2.10;;;;;;;23.79;45.77;102552.31;5034361;28;20105;-74
2022/08/08 08:04:47;;;;;;;4.93;2.67;;;;;;;23.81;45.78;102549.53;5033798;28;20092;-74
2022/08/08 08:07:15;;;;;;;5.75;2.28;;;;;;;23.81;45.97;102545.03;5034470;28;20048;-75
2022/08/08 08:09:41;;;;;;;6.05;2.42;;;;;;;23.85;45.60;102556.34;5034775;28;20026;-72
2022/08/08 08:12:12;;;;;;;5.03;2.08;;;;;;;23.85;45.31;102551.88;5033368;28;20033;-73
2022/08/08 08:14:57;;;;;;;5.57;2.20;;;;;;;23.85;45.67;102557.19;5034504;28;20029;-75
2022/08/08 08:17:24;;;;;;;5.03;2.10;;;;;;;23.85;45.80;102548.38;5033985;28;20021;-74
2022/08/08 08:19:56;;;;;;;4.43;1.92;;;;;;;23.87;45.37;102559.72;5033540;28;20480;-72
2022/08/08 08:22:21;;;;;;;4.13;1.85;;;;;;;23.86;45.53;102561.56;5034144;28;20045;-72
2022/08/08 08:24:47;;;;;;;3.85;1.65;;;;;;;23.89;45.35;102558.66;5034123;28;20033;-71
2022/08/08 08:27:12;;;;;;;5.07;1.50;;;;;;;23.94;45.44;102565.41;5033223;28;20029;-76
2022/08/08 08:29:37;;;;;;;3.75;1.73;;;;;;;23.96;45.18;102563.47;5034186;28;20088;-77
2022/08/08 08:32:04;;;;;;;4.88;1.90;;;;;;;23.99;44.82;102569.41;5033890;28;20022;-75
2022/08/08 08:34:29;;;;;;;4.50;1.52;;;;;;;24.00;44.99;102565.75;5035443;28;20434;-77
2022/08/08 08:36:55;;;;;;;3.83;1.58;;;;;;;24.03;44.77;102570.84;5034292;28;20083;-72
2022/08/08 08:39:20;;;;;;;4.33;1.70;;;;;;;24.04;45.15;102569.06;5032919;28;20028;-72
2022/08/08 08:41:47;;;;;;;5.68;1.70;;;;;;;24.02;44.76;102569.16;5033716;28;20326;-70
2022/08/08 08:44:14;;;;;;;5.15;2.00;;;;;;;24.01;43.59;102566.63;5033638;28;20025;-69
2022/08/08 08:46:40;;;;;;;7.32;2.00;;;;;;;23.88;43.50;102577.41;5033577;28;20018;-70
2022/08/08 08:49:06;;;;;;;3.67;1.65;;;;;;;23.75;42.82;102569.50;5033764;28;20029;-70
2022/08/08 08:51:37;;;;;;;4.53;1.70;;;;;;;23.63;42.98;102567.81;5033953;28;20136;-71
2022/08/08 08:54:06;;;;;;;4.35;1.80;;;;;;;23.51;42.63;102572.25;5032692;28;20373;-70
2022/08/08 08:56:35;;;;;;;4.53;1.83;;;;;;;23.42;42.88;102567.66;5033900;28;20053;-70
2022/08/08 08:59:02;;;;;;;5.32;1.73;;;;;;;23.34;43.60;102577.06;5033316;28;20080;-70
2022/08/08 09:01:31;;;;;;;4.15;1.50;;;;;;;23.32;42.95;102575.47;5033145;28;20032;-74
2022/08/08 09:04:04;;;;;;;5.63;1.40;;;;;;;23.26;42.87;102573.31;5034122;28;20033;-72
2022/08/08 09:06:38;;;;;;;3.93;1.63;;;;;;;23.25;43.41;102569.78;5033765;28;20477;-70
2022/08/08 09:09:07;;;;;;;;;;;;;;;23.24;43.03;102572.56;5033001;28;20415;-73
2022/08/08 09:11:34;;;;;;;4.35;1.60;;;;;;;23.31;42.71;102579.13;5033375;28;19920;-71
2022/08/08 09:14:01;;;;;;;3.80;1.33;;;;;;;23.32;42.55;102576.34;5032887;28;20025;-73
2022/08/08 09:16:27;;;;;;;5.60;1.70;;;;;;;23.34;43.45;102569.09;5032947;28;20462;-71
2022/08/08 09:18:53;;;;;;;2.65;1.20;;;;;;;23.44;43.47;102568.38;5033462;28;20369;-70
2022/08/08 09:21:19;;;;;;;3.67;1.40;;;;;;;23.55;43.44;102574.56;5032898;28;20104;-73
2022/08/08 09:23:46;;;;;;;3.55;1.27;;;;;;;23.68;43.36;102573.63;5032467;28;20029;-74
2022/08/08 09:26:20;;;;;;;4.22;1.23;;;;;;;23.79;43.18;102578.94;5033959;28;20049;-74
2022/08/08 09:28:45;;;;;;;3.70;1.27;;;;;;;23.85;42.86;102578.50;5032923;28;20479;-76
2022/08/08 09:31:19;;;;;;;3.30;1.17;;;;;;;23.94;43.07;102581.38;5032129;28;20112;-76
2022/08/08 09:33:50;;;;;;;4.07;1.15;;;;;;;23.98;43.13;102578.38;5033262;28;20025;-73
2022/08/08 09:36:21;;;;;;;4.22;1.17;;;;;;;24.05;42.79;102579.59;5032245;28;20029;-76
2022/08/08 09:38:55;;;;;;;3.58;1.30;;;;;;;24.07;43.07;102582.13;5033329;28;20052;-76
2022/08/08 09:41:41;;;;;;;4.00;1.50;;;;;;;24.09;42.84;102575.69;5032833;28;20045;-76
2022/08/08 09:44:20;;;;;;;3.50;1.25;;;;;;;24.14;42.95;102572.66;5032584;28;20021;-79
2022/08/08 09:46:49;;;;;;;5.50;1.30;;;;;;;24.16;42.56;102570.72;5033820;28;20025;-75
2022/08/08 09:49:17;;;;;;;5.60;1.38;;;;;;;24.19;42.77;102575.78;5032329;28;20071;-76
2022/08/08 09:51:49;;;;;;;4.13;1.42;;;;;;;24.20;42.91;102574.84;5032736;28;20033;-74
2022/08/08 09:54:17;;;;;;;3.03;1.25;;;;;;;24.23;42.50;102565.75;5032995;28;20049;-75
2022/08/08 09:56:46;;;;;;;2.33;1.02;;;;;;;24.29;42.41;102575.06;5032647;28;20393;-77
2022/08/08 09:59:19;;;;;;;3.53;1.30;;;;;;;24.34;42.78;102575.53;5032562;28;20025;-71
2022/08/08 10:01:45;;;;;;;3.33;1.10;;;;;;;24.32;42.71;102570.31;5032848;28;20084;-71
2022/08/08 10:04:14;;;;;;;4.00;1.45;;;;;;;24.30;42.23;102566.09;5031775;28;20032;-71
2022/08/08 10:06:43;;;;;;;8.35;1.20;;;;;;;24.31;42.34;102578.44;5032835;28;20021;-72
2022/08/08 10:09:08;;;;;;;2.05;0.90;;;;;;;24.34;42.54;102568.41;5032379;28;20033;-76
2022/08/08 10:11:36;;;;;;;2.33;1.00;;;;;;;24.34;42.33;102579.06;5031800;28;20465;-75
2022/08/08 10:14:03;;;;;;;3.50;1.10;;;;;;;24.32;42.17;102567.66;5032353;28;20052;-76
2022/08/08 10:16:37;;;;;;;2.58;1.00;;;;;;;24.36;42.25;102576.28;5032912;28;20037;-76
2022/08/08 10:19:05;;;;;;;4.85;1.30;;;;;;;24.37;42.65;102562.81;5031592;28;20469;-71
2022/08/08 10:21:34;;;;;;;2.80;1.10;;;;;;;24.42;42.12;102573.94;5032613;28;20025;-76
2022/08/08 10:24:07;;;;;;;3.83;1.15;;;;;;;24.46;42.02;102577.19;5032333;28;20021;-73
2022/08/08 10:26:46;;;;;;;3.17;1.35;;;;;;;24.49;42.49;102568.97;5031785;28;20021;-72
2022/08/08 10:29:12;;;;;;;2.88;1.08;;;;;;;24.53;42.37;102578.41;5032387;28;20039;-74
2022/08/08 10:34:45;;;;;;;2.13;1.00;;;;;;;24.54;41.97;102569.41;5032542;28;20396;-69
2022/08/08 10:37:11;;;;;;;2.22;0.93;;;;;;;24.54;42.38;102569.41;5028361;28;20044;-74
2022/08/08 10:39:42;;;;;;;4.18;1.13;;;;;;;24.55;42.50;102570.28;5031319;28;20049;-74
2022/08/08 10:42:10;;;;;;;3.15;1.30;;;;;;;24.56;41.93;102561.28;5034553;28;20021;-67
2022/08/08 10:44:42;;;;;;;2.15;0.95;;;;;;;24.56;41.95;102562.19;5036219;28;20052;-66
2022/08/08 10:47:11;;;;;;;3.25;1.02;;;;;;;24.56;42.08;102561.28;5034931;28;20053;-65
2022/08/08 10:49:38;;;;;;;3.50;1.10;;;;;;;24.54;42.15;102553.44;5035755;28;20029;-64
2022/08/08 10:52:04;;;;;;;3.53;1.02;;;;;;;24.55;42.00;102554.28;5035757;28;20029;-64
2022/08/08 10:54:29;;;;;;;2.50;0.90;;;;;;;24.53;42.17;102567.75;5035234;28;20020;-66
2022/08/08 10:56:57;;;;;;;2.42;1.05;;;;;;;24.52;42.55;102562.53;5035923;28;20535;-66
2022/08/08 10:59:23;;;;;;;2.42;0.82;;;;;;;24.49;42.29;102565.44;5035364;28;20018;-70
2022/08/08 11:01:49;;;;;;;4.57;1.05;;;;;;;24.46;42.15;102566.53;5034649;28;20393;-68
2022/08/08 11:04:15;;;;;;;3.13;1.20;;;;;;;24.45;42.55;102562.19;5035203;28;20022;-72
2022/08/08 11:06:43;;;;;;;2.20;1.00;;;;;;;24.42;42.44;102557.97;5035890;28;20394;-75
2022/08/08 11:09:10;;;;;;;3.00;1.00;;;;;;;24.42;42.48;102565.13;5034114;28;20021;-74
2022/08/08 11:11:43;;;;;;;3.80;1.15;;;;;;;24.42;42.64;102562.44;5035323;28;20029;-75
2022/08/08 11:14:12;;;;;;;3.30;0.95;;;;;;;24.41;42.79;102556.25;5034486;28;20028;-75
2022/08/08 11:16:43;;;;;;;3.08;1.20;;;;;;;24.39;42.75;102550.22;5035408;28;20025;-75
2022/08/08 11:19:12;;;;;;;2.00;0.90;;;;;;;24.40;42.86;102551.03;5035102;28;20113;-74
2022/08/08 11:21:45;;;;;;;2.85;1.10;;;;;;;24.38;42.84;102553.84;5034652;28;20095;-75
2022/08/08 11:24:11;;;;;;;2.53;1.00;;;;;;;24.37;42.65;102553.97;5035172;28;20043;-75
2022/08/08 11:26:40;;;;;;;3.50;1.13;;;;;;;24.35;42.42;102551.41;5035328;28;20026;-75
2022/08/08 11:29:07;;;;;;;2.80;0.98;;;;;;;24.34;42.57;102551.53;5034083;28;20061;-75
2022/08/08 11:31:37;;;;;;;2.92;1.27;;;;;;;24.31;42.88;102549.13;5035085;28;20432;-75
2022/08/08 11:34:04;;;;;;;2.30;1.10;;;;;;;24.31;42.87;102542.00;5035172;28;20025;-75
2022/08/08 11:36:32;;;;;;;4.25;1.10;;;;;;;24.30;42.88;102550.97;5034458;28;20029;-75
2022/08/08 11:39:01;;;;;;;2.65;0.93;;;;;;;24.27;43.05;102545.88;5035181;28;20033;-75
2022/08/08 11:41:27;;;;;;;2.90;1.10;;;;;;;24.26;42.97;102544.19;5034684;28;20048;-74
2022/08/08 11:43:53;;;;;;;3.47;1.10;;;;;;;24.24;42.97;102539.00;5034230;28;20021;-74
2022/08/08 11:46:22;;;;;;;3.42;1.17;;;;;;;24.22;42.79;102551.56;5035889;28;20033;-77
2022/08/08 11:48:48;;;;;;;2.30;1.00;;;;;;;24.22;42.79;102543.59;5036026;28;20113;-76
2022/08/08 11:51:16;;;;;;;2.50;1.00;;;;;;;24.20;42.81;102539.38;5033974;28;20104;-75
2022/08/08 11:53:42;;;;;;;3.50;1.00;;;;;;;24.18;42.74;102544.81;5033906;28;20070;-75
2022/08/08 11:56:17;;;;;;;2.78;1.02;;;;;;;24.19;42.84;102543.00;5034642;28;20029;-75
2022/08/08 11:58:43;;;;;;;1.95;0.90;;;;;;;24.18;42.95;102546.63;5034920;28;20378;-76
2022/08/08 12:01:08;;;;;;;2.13;1.10;;;;;;;24.16;43.15;102538.75;5034595;28;20022;-76